Latest Weather Observations for Orange Airport

IDN60801

Issued at 9:33 pm EST Monday 25 July 2016 (issued every 30 minutes, with the page automatically refreshed every 10 minutes)

About weather observations | Map of weather stations | Latest weather observations for NSW | Other Formats
Station Details ID: 063303 Name: ORANGE AIRPORT AWS Lat: -33.38 Lon: 149.13 Height: 944.65 m
Data from the previous 72 hours. | See also: Recent months at Orange Airport
Date/Time
EST
Temp
°C
App
Temp
°C
Dew
Point
°C
Rel
Hum
%
Delta-T
°C
Wind Press
QNH
hPa
Press
MSL
hPa
Rain since
9am
mm
Dir  Spd
km/h
Gust
km/h
Spd
kts
Gust
kts
25/09:30pm 4.3 -1.4 3.0 91 0.6 NW 22 35 12 19 1017.1 1018.2 0.0
25/09:14pm 4.3 -1.4 2.8 90 0.6 WNW 22 28 12 15 1017.0 1018.1 0.0
25/09:00pm 4.1 -1.6 2.9 92 0.5 WNW 22 30 12 16 1017.0 1018.1 0.0
25/08:30pm 3.9 -2.2 2.7 92 0.5 WNW 24 35 13 19 1016.7 1017.8 0.0
25/08:00pm 3.5 -3.4 2.5 93 0.4 WNW 28 39 15 21 1016.6 1017.7 0.0
25/07:47pm 3.4 -4.3 2.4 93 0.4 NW 32 43 17 23 1016.2 1017.3 0.0
25/07:30pm 3.3 -4.0 2.3 93 0.4 NW 30 44 16 24 1016.2 1017.3 0.0
25/07:00pm 3.2 -3.8 2.2 93 0.4 NW 28 37 15 20 1015.9 1016.9 0.0
25/06:57pm 3.2 -3.8 2.2 93 0.4 NW 28 37 15 20 1015.9 1016.9 0.0
25/06:47pm 3.2 -3.4 2.2 93 0.4 WNW 26 35 14 19 1015.7 1016.8 0.0
25/06:30pm 3.2 -3.4 2.2 93 0.4 NW 26 32 14 17 1015.6 1016.7 0.0
25/06:25pm 3.2 -3.4 2.2 93 0.4 WNW 26 32 14 17 1015.7 1016.8 0.0
25/06:00pm 3.3 -2.1 2.3 93 0.4 WNW 20 28 11 15 1015.7 1016.8 0.0
25/05:30pm 3.5 -3.4 2.3 92 0.5 NW 28 35 15 19 1015.4 1016.5 0.0
25/05:00pm 3.8 -2.7 2.6 92 0.5 NW 26 39 14 21 1015.3 1016.4 0.0
25/04:30pm 4.1 -2.4 2.9 92 0.5 WNW 26 35 14 19 1015.2 1016.3 0.0
25/04:00pm 4.4 -2.4 3.2 92 0.5 WNW 28 33 15 18 1014.9 1015.9 0.0
25/03:30pm 4.7 -2.0 3.5 92 0.5 WNW 28 35 15 19 1014.9 1015.9 0.0
25/03:00pm 5.2 -1.2 3.4 88 0.8 WNW 26 35 14 19 1014.7 1015.7 0.0
25/02:30pm 4.9 -1.4 3.6 91 0.6 WNW 26 33 14 18 1014.8 1015.8 0.0
25/02:00pm 4.9 -1.9 3.2 89 0.7 WNW 28 35 15 19 1014.7 1015.7 0.0
25/01:30pm 4.9 -1.1 3.2 89 0.7 WNW 24 33 13 18 1015.0 1016.0 0.0
25/01:14pm 4.5 -2.4 2.7 88 0.8 NW 28 35 15 19 1015.2 1016.3 0.0
25/01:00pm 5.1 -0.7 2.1 81 1.3 W 22 28 12 15 1015.3 1016.4 0.0
25/12:30pm 4.9 -1.7 2.3 83 1.1 W 26 32 14 17 1015.6 1016.7 0.0
25/12:00pm 5.0 -2.5 1.5 78 1.5 WNW 30 37 16 20 1015.9 1016.9 0.0
25/11:30am 4.5 -2.5 1.7 82 1.2 W 28 37 15 20 1016.1 1017.2 0.0
25/11:00am 4.5 -1.6 2.7 88 0.8 W 24 30 13 16 1016.2 1017.3 0.0
25/10:58am 4.6 -1.5 2.8 88 0.8 W 24 32 13 17 1016.2 1017.3 0.0
25/10:30am 3.6 -3.1 1.6 87 0.8 W 26 35 14 19 1016.1 1017.2 0.0
25/10:00am 3.3 -3.3 2.1 92 0.5 W 26 35 14 19 1015.9 1016.9 0.0
25/09:58am 3.2 -3.4 2.0 92 0.5 W 26 35 14 19 1015.9 1016.9 0.0
25/09:30am 3.1 -4.3 2.1 93 0.4 WSW 30 39 16 21 1015.6 1016.7 0.0
25/09:24am 2.9 -4.5 1.9 93 0.4 W 30 39 16 21 1015.4 1016.5 0.0
25/09:00am 3.2 -3.8 2.0 92 0.5 W 28 39 15 21 1015.0 1016.0 6.2
25/08:30am 2.8 -4.6 1.6 92 0.5 W 30 43 16 23 1014.7 1015.7 6.2
25/08:03am 2.8 -5.0 1.8 93 0.4 W 32 43 17 23 1014.5 1015.6 6.2
25/08:00am 2.8 -5.0 1.8 93 0.4 W 32 41 17 22 1014.4 1015.5 6.2
25/07:30am 2.6 -3.7 1.6 93 0.4 W 24 33 13 18 1014.2 1015.3 6.0
25/07:00am 2.6 -4.5 1.6 93 0.4 W 28 41 15 22 1013.9 1014.9 5.8
25/06:30am 2.5 -3.8 1.5 93 0.4 WNW 24 33 13 18 1013.3 1014.4 5.8
25/06:19am 2.7 -4.8 1.5 92 0.5 W 30 43 16 23 1013.2 1014.2 5.8
25/06:00am 3.1 -4.7 1.6 90 0.6 W 32 44 17 24 1012.9 1013.9 5.8
25/05:38am 3.3 -4.5 1.8 90 0.6 W 32 46 17 25 1012.6 1013.6 5.8
25/05:30am 3.4 -4.6 1.6 88 0.7 W 33 48 18 26 1012.6 1013.6 5.8
25/05:00am 3.5 -3.6 1.5 87 0.8 W 28 44 15 24 1012.4 1013.4 5.8
25/04:30am 3.4 -3.3 1.3 86 0.9 W 26 39 14 21 1012.2 1013.2 5.8
25/04:00am 3.2 -2.7 1.6 89 0.7 W 22 39 12 21 1012.0 1013.0 5.8
25/03:30am 2.8 -2.7 0.7 86 0.8 W 19 26 10 14 1012.2 1013.2 5.8
25/03:00am 3.0 -4.1 1.1 87 0.8 W 28 39 15 21 1012.4 1013.4 5.8
25/02:30am 3.1 -4.4 1.3 88 0.7 W 30 43 16 23 1012.5 1013.5 5.8
25/02:00am 3.5 -3.5 1.9 89 0.7 WSW 28 37 15 20 1012.6 1013.6 5.8
25/01:39am 3.7 -4.0 2.1 89 0.7 W 32 44 17 24 1012.6 1013.6 5.8
25/01:30am 3.9 -4.8 2.1 88 0.8 W 37 52 20 28 1012.5 1013.5 5.8
25/01:00am 4.2 -4.3 3.0 92 0.5 WNW 37 54 20 29 1012.2 1013.2 5.8
25/12:48am 4.1 -4.4 2.9 92 0.5 WNW 37 57 20 31 1012.2 1013.2 5.8
25/12:43am 3.9 -3.9 2.7 92 0.5 WNW 33 57 18 31 1012.2 1013.2 5.8
25/12:30am 3.6 -3.3 2.6 93 0.4 W 28 43 15 23 1012.5 1013.5 5.6
25/12:28am 3.6 -3.3 2.6 93 0.4 W 28 43 15 23 1012.4 1013.4 5.4
25/12:12am 4.0 -2.9 2.8 92 0.5 WNW 28 39 15 21 1012.4 1013.4 4.8
25/12:00am 4.2 -2.6 3.0 92 0.5 WNW 28 44 15 24 1012.2 1013.2 4.6
 
Date/Time
EST
Temp
°C
App
Temp
°C
Dew
Point
°C
Rel
Hum
%
Delta-T
°C
Wind Press
QNH
hPa
Press
MSL
hPa
Rain since
9am
mm
Dir  Spd
km/h
Gust
km/h
Spd
kts
Gust
kts
24/11:30pm 3.3 -2.9 2.1 92 0.5 NW 24 33 13 18 1012.5 1013.5 4.2
24/11:29pm 3.3 -3.3 2.1 92 0.5 NW 26 41 14 22 1012.5 1013.5 4.2
24/11:27pm 3.3 -3.7 2.1 92 0.5 NW 28 41 15 22 1012.5 1013.5 4.2
24/11:09pm 3.2 -3.8 2.0 92 0.5 W 28 37 15 20 1012.9 1013.9 3.6
24/11:00pm 4.2 -2.6 3.2 93 0.4 NW 28 43 15 23 1012.6 1013.6 2.0
24/10:30pm 4.1 -2.3 3.1 93 0.4 NNW 26 33 14 18 1012.0 1013.0 0.6
24/10:00pm 4.1 -2.7 3.1 93 0.4 NNW 28 37 15 20 1012.6 1013.6 0.2
24/09:30pm 4.0 -1.7 3.0 93 0.4 NW 22 30 12 16 1012.7 1013.7 0.2
24/09:00pm 4.0 -1.3 3.0 93 0.4 NW 20 30 11 16 1012.9 1013.9 0.0
24/08:30pm 4.0 -0.7 3.0 93 0.4 NW 17 20 9 11 1013.0 1014.0 0.0
24/08:00pm 3.7 -1.5 2.7 93 0.4 NNW 19 24 10 13 1013.0 1014.0 0.0
24/07:30pm 3.7 -1.1 2.5 92 0.5 NNW 17 26 9 14 1012.9 1013.9 0.0
24/07:00pm 3.7 -2.4 2.5 92 0.5 N 24 33 13 18 1012.9 1013.9 0.0
24/06:30pm 3.7 -1.7 2.5 92 0.5 NNW 20 30 11 16 1012.8 1013.8 0.0
24/06:00pm 3.7 -0.4 2.2 90 0.6 NNW 13 19 7 10 1012.7 1013.7 0.0
24/05:43pm 3.7 -1.2 2.2 90 0.6 NW 17 24 9 13 1012.8 1013.8 0.0
24/05:30pm 3.8 -0.8 1.8 87 0.8 NNW 15 20 8 11 1012.6 1013.6 0.0
24/05:00pm 3.8 -1.1 1.8 87 0.8 NW 17 26 9 14 1012.5 1013.5 0.0
24/04:30pm 4.1 -1.5 1.5 83 1.1 NW 20 26 11 14 1012.0 1013.0 0.0
24/04:00pm 4.2 -1.1 1.6 83 1.1 NNW 19 26 10 14 1012.0 1013.0 0.0
24/03:30pm 4.3 -0.7 1.2 80 1.3 NNW 17 24 9 13 1011.7 1012.7 0.0
24/03:00pm 4.4 -0.7 0.7 77 1.5 NW 17 22 9 12 1012.5 1013.5 0.0
24/02:30pm 4.9 -0.6 0.7 74 1.7 NW 19 24 10 13 1012.9 1013.9 0.0
24/02:00pm 4.7 -1.5 -0.5 69 2.1 NW 22 28 12 15 1012.9 1013.9 0.0
24/01:30pm 5.1 -0.1 0.1 70 2.0 NW 17 26 9 14 1013.1 1014.1 0.0
24/01:00pm 4.6 -0.1 0.6 75 1.6 NNW 15 17 8 9 1014.0 1015.0 0.0
24/12:30pm 3.7 -2.0 -0.5 74 1.7 NW 19 24 10 13 1014.4 1015.5 0.0
24/12:00pm 4.0 -1.5 0.7 79 1.3 NW 19 22 10 12 1014.7 1015.7 0.0
24/11:30am 2.5 -1.6 0.1 84 0.9 N 11 15 6 8 1014.8 1015.8 0.0
24/11:00am 2.8 -1.6 0.4 84 1.0 N 13 15 7 8 1015.3 1016.4 0.0
24/10:30am 2.6 -1.0 0.7 87 0.8 N 9 13 5 7 1016.1 1017.2 0.0
24/10:00am 2.1 -1.6 0.0 86 0.8 N 9 13 5 7 1016.3 1017.4 0.0
24/09:30am 1.6 -1.9 -1.1 82 1.0 NW 7 7 4 4 1016.3 1017.4 0.0
24/09:00am 1.0 -1.1 -0.9 87 0.7 CALM 0 0 0 0 1015.5 1016.6 1.0
24/08:30am 0.3 -2.6 -1.1 90 0.5 NW 4 7 2 4 1015.2 1016.3 1.0
24/08:00am -0.3 -3.8 -1.4 92 0.4 NW 7 9 4 5 1015.4 1016.5 1.0
24/07:30am -0.7 -3.3 -1.8 92 0.4 SW 2 6 1 3 1014.2 1015.3 1.0
24/07:00am -0.8 -4.2 -1.9 92 0.4 SW 6 7 3 4 1014.0 1015.0 1.0
24/06:30am -0.9 -3.2 -2.0 92 0.4 CALM 0 0 0 0 1013.8 1014.8 1.0
24/06:00am -0.6 -3.7 -2.3 88 0.6 W 4 9 2 5 1013.9 1014.9 1.0
24/05:30am 0.0 -5.1 -1.9 87 0.7 SW 15 19 8 10 1013.2 1014.2 1.0
24/05:00am -0.1 -5.2 -2.0 87 0.7 SW 15 20 8 11 1013.0 1014.0 1.0
24/04:30am 0.0 -4.0 -2.4 84 0.9 SW 9 15 5 8 1013.6 1014.6 1.0
24/04:00am 0.1 -5.0 -2.1 85 0.8 SW 15 19 8 10 1013.7 1014.7 1.0
24/03:30am 0.3 -4.5 -2.4 82 1.0 SW 13 19 7 10 1013.2 1014.2 1.0
24/03:00am 0.1 -4.7 -2.6 82 1.0 SW 13 19 7 10 1013.1 1014.1 1.0
24/02:30am 0.2 -5.4 -2.7 81 1.1 SW 17 24 9 13 1013.0 1014.0 1.0
24/02:00am 0.4 -5.7 -2.5 81 1.1 SW 20 28 11 15 1013.9 1014.9 1.0
24/01:30am 0.3 -5.8 -2.4 82 1.0 SW 20 30 11 16 1013.8 1014.8 1.0
24/01:00am 0.5 -5.6 -2.2 82 1.0 WSW 20 28 11 15 1014.4 1015.5 1.0
24/12:30am 0.4 -5.7 -2.0 84 0.9 WSW 20 26 11 14 1014.5 1015.6 1.0
24/12:00am 0.8 -5.3 -2.1 81 1.1 WSW 20 26 11 14 1014.3 1015.4 1.0
 
Date/Time
EST
Temp
°C
App
Temp
°C
Dew
Point
°C
Rel
Hum
%
Delta-T
°C
Wind Press
QNH
hPa
Press
MSL
hPa
Rain since
9am
mm
Dir  Spd
km/h
Gust
km/h
Spd
kts
Gust
kts
23/11:30pm 0.8 -5.2 -1.6 84 0.9 WSW 20 30 11 16 1014.5 1015.6 1.0
23/11:00pm 1.1 -4.6 -1.1 85 0.8 WSW 19 24 10 13 1014.5 1015.6 1.0
23/10:30pm 1.4 -4.4 -0.2 89 0.6 WSW 20 28 11 15 1014.7 1015.7 1.0
23/10:00pm 1.9 -5.4 0.1 88 0.7 WSW 28 37 15 20 1014.7 1015.7 1.0
23/09:32pm 2.5 -5.0 1.0 90 0.6 WSW 30 39 16 21 1014.4 1015.5 1.0
23/09:30pm 2.6 -4.9 1.1 90 0.6 WSW 30 41 16 22 1014.3 1015.4 1.0
23/09:03pm 2.8 -3.1 1.6 92 0.5 WSW 22 30 12 16 1014.3 1015.4 1.0
23/09:00pm 2.8 -3.1 1.5 91 0.5 WSW 22 30 12 16 1014.2 1015.3 1.0
23/08:30pm 2.7 -3.6 1.5 92 0.5 WSW 24 32 13 17 1013.6 1014.6 1.0
23/08:00pm 2.9 -2.7 1.0 87 0.8 WSW 20 33 11 18 1013.4 1014.5 1.0
23/07:30pm 3.2 -2.7 1.6 89 0.7 W 22 33 12 18 1013.7 1014.7 1.0
23/07:00pm 3.2 -2.3 2.0 92 0.5 W 20 35 11 19 1013.3 1014.4 1.0
23/06:30pm 3.0 -4.8 1.8 92 0.5 WSW 32 43 17 23 1012.7 1013.7 1.0
23/06:00pm 3.8 -3.1 2.6 92 0.5 W 28 39 15 21 1012.2 1013.2 0.6
23/05:30pm 3.5 -1.7 2.3 92 0.5 W 19 30 10 16 1012.1 1013.1 0.6
23/05:00pm 3.2 -3.8 2.0 92 0.5 WSW 28 39 15 21 1011.8 1012.8 0.6
23/04:47pm 3.9 -3.0 2.3 89 0.7 WSW 28 46 15 25 1011.6 1012.6 0.4
23/04:30pm 4.3 -2.6 2.3 87 0.9 W 28 37 15 20 1011.4 1012.3 0.4
23/04:00pm 5.1 -1.2 3.8 91 0.6 W 26 39 14 21 1011.1 1012.1 0.4
23/03:30pm 4.0 -2.9 2.7 91 0.6 W 28 43 15 23 1010.6 1011.6 0.4
23/03:00pm 5.3 -1.6 2.8 84 1.1 W 28 46 15 25 1010.1 1011.0 0.4
23/02:30pm 4.9 -2.2 3.4 90 0.7 W 30 43 16 23 1009.9 1010.9 0.4
23/02:27pm 4.9 -2.6 3.7 92 0.5 W 32 43 17 23 1009.8 1010.8 0.4
23/02:00pm 4.3 -3.2 3.3 93 0.4 W 32 44 17 24 1009.8 1010.8 0.4
23/01:35pm 5.0 -2.6 3.8 92 0.5 W 33 52 18 28 1009.6 1010.5 0.2
23/01:33pm 5.0 -2.6 3.7 91 0.6 W 33 52 18 28 1009.5 1010.4 0.2
23/01:30pm 4.9 -2.7 3.1 88 0.8 W 32 52 17 28 1009.4 1010.3 0.2
23/01:27pm 5.4 -1.7 3.7 89 0.8 W 30 48 16 26 1009.4 1010.3 0.2
23/01:00pm 4.6 -2.9 3.4 92 0.5 W 32 43 17 23 1009.5 1010.4 0.2
23/12:30pm 4.9 -2.8 3.4 90 0.7 W 33 52 18 28 1009.3 1010.2 0.2
23/12:28pm 4.9 -2.6 3.6 91 0.6 W 32 52 17 28 1009.2 1010.1 0.2
23/12:00pm 4.5 -3.2 3.3 92 0.5 W 33 48 18 26 1009.5 1010.4 0.2
23/11:43am 4.3 -2.9 3.1 92 0.5 W 30 50 16 27 1009.4 1010.3 0.2
23/11:40am 4.3 -3.5 3.1 92 0.5 W 33 46 18 25 1009.5 1010.4 0.2
23/11:30am 4.7 -3.4 3.5 92 0.5 W 35 50 19 27 1009.4 1010.3 0.2
23/11:17am 4.2 -4.0 2.9 91 0.6 W 35 54 19 29 1009.3 1010.2 0.2
23/11:00am 3.7 -3.9 2.7 93 0.4 W 32 43 17 23 1009.3 1010.2 0.2
23/10:49am 3.6 -4.7 2.4 92 0.5 W 35 52 19 28 1009.2 1010.1 0.0
23/10:47am 3.6 -4.3 2.4 92 0.5 W 33 52 18 28 1009.2 1010.1 0.0
23/10:46am 3.7 -4.0 2.5 92 0.5 W 32 44 17 24 1009.2 1010.1 0.0
23/10:36am 4.0 -3.6 2.8 92 0.5 W 32 43 17 23 1009.2 1010.1 0.0
23/10:30am 3.8 -4.8 2.6 92 0.5 W 37 50 20 27 1009.1 1010.0 0.0
23/10:29am 3.8 -4.8 2.6 92 0.5 W 37 54 20 29 1009.1 1010.0 0.0
23/10:20am 4.0 -4.3 2.2 88 0.8 W 35 54 19 29 1009.1 1010.0 0.0
23/10:00am 4.1 -4.3 1.8 85 1.0 W 35 48 19 26 1008.8 1009.8 0.0
23/09:35am 3.9 -5.2 1.6 85 1.0 W 39 57 21 31 1008.7 1009.7 0.0
23/09:30am 4.0 -5.9 1.5 84 1.0 W 43 57 23 31 1008.7 1009.7 0.0
23/09:09am 4.0 -5.1 1.7 85 1.0 W 39 57 21 31 1008.5 1009.4 0.0
23/09:00am 4.0 -5.9 1.4 83 1.1 W 43 57 23 31 1008.4 1009.3 9.6
23/08:37am 4.3 -2.7 1.7 83 1.1 W 28 57 15 31 1008.1 1009.0 9.6
23/08:30am 4.2 -3.1 2.2 87 0.8 W 30 43 16 23 1008.0 1008.9 9.6
23/08:00am 4.2 -3.8 1.6 83 1.1 W 33 50 18 27 1007.6 1008.5 9.6
23/07:30am 4.3 -4.8 1.7 83 1.1 W 39 63 21 34 1007.0 1007.9 9.6
23/07:02am 4.7 -2.3 2.2 84 1.1 W 28 50 15 27 1006.3 1007.2 9.6
23/07:00am 4.8 -1.3 2.5 85 1.0 W 24 46 13 25 1006.4 1007.3 9.6
23/06:31am 4.8 -2.9 2.2 83 1.1 W 32 50 17 27 1005.7 1006.5 9.6
23/06:30am 4.7 -3.0 2.2 84 1.1 WSW 32 46 17 25 1005.6 1006.4 9.6
23/06:04am 4.9 -4.5 2.4 84 1.1 W 41 59 22 32 1005.3 1006.2 9.6
23/06:00am 4.9 -5.1 2.3 83 1.1 W 44 59 24 32 1005.2 1006.1 9.6
23/05:30am 5.2 -3.8 2.2 81 1.3 W 39 65 21 35 1004.7 1005.5 9.6
23/05:00am 6.3 -3.3 3.3 81 1.3 W 43 61 23 33 1004.1 1004.9 9.6
23/04:40am 6.6 -3.9 3.9 83 1.2 W 48 69 26 37 1003.8 1004.6 9.6
23/04:30am 6.8 -4.0 4.3 84 1.1 W 50 74 27 40 1003.7 1004.5 9.6
23/04:29am 6.9 -3.9 4.2 83 1.2 W 50 74 27 40 1003.7 1004.5 9.6
23/04:26am 6.9 -2.7 4.4 84 1.1 W 44 70 24 38 1003.7 1004.5 9.6
23/04:15am 6.9 -0.9 5.1 88 0.8 W 35 54 19 29 1003.7 1004.5 9.6
23/04:14am 6.9 -0.9 5.1 88 0.8 W 35 48 19 26 1003.7 1004.5 9.6
23/04:00am 7.2 -1.4 4.7 84 1.2 W 39 61 21 33 1003.6 1004.4 9.6
23/03:30am 7.4 -2.6 4.5 82 1.3 W 46 69 25 37 1003.6 1004.4 9.6
23/03:13am 7.6 -1.8 4.6 81 1.4 W 43 63 23 34 1003.4 1004.2 9.6
23/03:00am 7.8 -1.2 4.6 80 1.5 W 41 56 22 30 1003.6 1004.4 9.6
23/02:31am 8.2 -1.8 4.2 76 1.8 W 46 69 25 37 1003.3 1004.0 9.6
23/02:30am 8.1 -1.9 4.3 77 1.8 W 46 63 25 34 1003.4 1004.2 9.6
23/02:00am 8.5 -3.4 4.1 74 2.0 W 56 76 30 41 1003.1 1003.9 9.6
23/01:30am 8.8 -3.6 4.8 76 1.9 W 59 83 32 45 1002.7 1003.5 9.6
23/01:00am 9.3 -1.3 4.9 74 2.1 W 50 74 27 40 1002.9 1003.7 9.6
23/12:30am 9.6 -1.2 6.0 78 1.8 W 52 76 28 41 1003.0 1003.8 9.6
23/12:18am 9.6 -1.8 7.4 86 1.1 W 57 83 31 45 1003.1 1003.9 9.6
23/12:03am 10.0 -0.5 8.9 93 0.6 WSW 54 76 29 41 1003.4 1004.2 9.4
23/12:00am 9.9 0.1 8.8 93 0.6 WSW 50 76 27 41 1003.4 1004.2 9.4
 
Date/Time
EST
Temp
°C
App
Temp
°C
Dew
Point
°C
Rel
Hum
%
Delta-T
°C
Wind Press
QNH
hPa
Press
MSL
hPa
Rain since
9am
mm
Dir  Spd
km/h
Gust
km/h
Spd
kts
Gust
kts
22/11:30pm 11.2 2.5 10.1 93 0.6 W 46 69 25 37 1003.0 1003.8 7.0
22/11:27pm 11.5 2.2 10.4 93 0.6 W 50 69 27 37 1002.7 1003.5 6.8
22/11:24pm 11.7 1.3 10.6 93 0.6 WNW 56 82 30 44 1003.1 1003.9 6.2
22/11:00pm 14.2 3.6 13.1 93 0.6 NW 61 82 33 44 1002.0 1002.8 4.0
22/10:52pm 14.3 4.7 13.2 93 0.6 WNW 56 78 30 42 1002.3 1003.0 4.0
22/10:40pm 14.1 5.2 13.0 93 0.6 WNW 52 82 28 44 1002.6 1003.4 4.0
22/10:30pm 13.9 4.5 12.8 93 0.6 NW 54 80 29 43 1001.9 1002.7 2.6
22/10:27pm 14.1 4.8 13.0 93 0.6 NW 54 72 29 39 1002.0 1002.8 2.2
22/10:00pm 14.8 5.7 13.7 93 0.6 NNW 54 76 29 41 1001.7 1002.5 0.2

Other Formats:

Comma delimited format used in spreadsheet applications
http://www.bom.gov.au/fwo/IDN60801/IDN60801.95726.axf

JavaScript Object Notation format (JSON) in row-major order
http://www.bom.gov.au/fwo/IDN60801/IDN60801.95726.json